EST,Max TemperatureF,Mean TemperatureF,Min TemperatureF,Max Dew PointF,MeanDew PointF,Min DewpointF,Max Humidity, Mean Humidity, Min Humidity, Max Sea Level PressureIn, Mean Sea Level PressureIn, Min Sea Level PressureIn, Max VisibilityMiles, Mean VisibilityMiles, Min VisibilityMiles, Max Wind SpeedMPH, Mean Wind SpeedMPH, Max Gust SpeedMPH,PrecipitationIn, CloudCover, Events, WindDirDegrees
2011-11-1,55,44,33,43,39,34,100,86,58,30.30,30.25,30.20,15,4,0,15,3,20,0.00,2,Fog-Rain,137
2011-11-2,62,52,42,45,42,37,100,72,45,30.25,30.18,30.07,15,14,10,18,7,21,0.00,4,,182
2011-11-3,51,45,39,46,41,36,100,80,71,30.14,30.04,30.00,15,12,2,13,8,18,0.00,7,,345
2011-11-4,48,39,30,34,29,27,93,69,46,30.39,30.27,30.15,15,15,15,13,6,17,0.00,0,,20
2011-11-5,51,40,30,34,27,21,86,67,30,30.45,30.39,30.31,15,15,15,14,7,,0.00,1,,104
2011-11-6,57,45,33,45,37,30,87,74,58,30.32,30.26,30.19,15,15,14,17,8,38,0.00,3,,163
2011-11-7,57,54,51,50,45,39,94,72,58,30.25,30.23,30.20,15,14,8,13,10,,0.00,7,Rain,226
2011-11-8,62,56,50,52,50,48,100,84,63,30.25,30.16,30.06,15,7,0,14,5,,0.00,7,Fog-Rain,147
2011-11-9,59,52,42,54,48,34,100,80,62,30.05,29.85,29.64,15,12,3,29,12,41,0.00,7,Rain,165
2011-11-10,44,38,32,36,31,27,93,73,53,29.93,29.87,29.81,15,15,15,26,17,36,0.00,4,Rain,237
2011-11-11,42,36,30,32,28,23,93,74,52,29.93,29.87,29.80,15,12,2,20,12,32,0.00,6,Snow,263
2011-11-12,53,45,37,43,36,28,87,70,58,29.91,29.87,29.81,15,15,15,16,12,22,0.00,3,,207
2011-11-13,60,54,50,52,43,37,77,65,58,29.86,29.70,29.55,15,15,13,30,18,37,0.00,8,,200
2011-11-14,62,52,41,52,46,39,100,81,58,29.70,29.63,29.55,15,14,6,25,13,39,0.00,6,Rain-Thunderstorm,254
2011-11-15,53,46,39,48,44,39,100,88,67,29.86,29.81,29.70,15,9,2,16,6,22,0.00,5,,231
2011-11-16,51,43,33,48,35,23,94,71,43,30.00,29.87,29.79,15,11,6,15,12,22,0.00,7,,264
2011-11-17,39,34,30,27,21,16,75,64,48,30.18,30.04,29.96,15,12,2,26,12,33,0.00,6,Snow,262
2011-11-18,44,34,24,27,22,19,80,59,37,30.32,30.22,30.09,15,15,15,24,14,36,0.00,5,,216
2011-11-19,53,46,42,43,34,27,76,60,49,30.11,30.03,29.88,15,15,15,23,16,31,0.00,7,Rain,207
2011-11-20,57,47,35,50,39,28,88,75,66,30.32,30.08,29.85,15,15,15,25,16,33,0.00,7,Rain,296
2011-11-21,39,34,28,28,26,23,86,74,61,30.41,30.36,30.33,15,15,15,10,6,,0.00,2,,47
2011-11-22,35,32,28,32,29,27,93,86,75,30.36,30.16,29.80,15,10,5,28,14,38,0.00,7,Rain,72
2011-11-23,46,39,30,37,33,30,100,86,57,30.16,29.99,29.76,15,11,3,20,14,31,0.00,5,Rain,336
2011-11-24,42,37,32,41,36,30,100,93,87,30.23,30.18,30.14,6,2,0,20,9,26,0.00,6,Fog,234
2011-11-25,55,47,39,45,40,37,93,77,58,30.14,30.06,29.99,15,10,2,20,13,24,0.00,5,,212
2011-11-26,55,48,42,46,42,37,87,73,62,30.08,30.04,29.97,15,15,15,15,9,23,0.00,6,Rain,190
2011-11-27,53,47,39,52,47,37,100,90,72,29.98,29.86,29.78,15,7,2,21,13,26,0.00,8,Rain,205
2011-11-28,42,38,35,37,35,32,93,83,75,30.15,30.07,29.98,15,14,7,12,9,17,0.00,7,Rain,20
2011-11-29,41,40,39,39,39,37,100,94,87,29.96,29.74,29.57,12,4,2,18,10,29,0.00,8,Rain,37
2011-11-30,41,36,30,39,30,25,100,84,60,30.14,29.80,29.52,15,7,0,17,9,30,0.00,6,Rain-Snow,311